sensor_id;sensor_type;location;lat;lon;timestamp;temperature;humidity
38726;DHT22;24474;48.906;8.808;2022-07-22T00:02:26;19.70;99.90
38726;DHT22;24474;48.906;8.808;2022-07-22T00:04:53;19.60;99.90
38726;DHT22;24474;48.906;8.808;2022-07-22T00:07:19;19.60;99.90
38726;DHT22;24474;48.906;8.808;2022-07-22T00:09:45;19.60;99.90
38726;DHT22;24474;48.906;8.808;2022-07-22T00:12:12;19.50;99.90
38726;DHT22;24474;48.906;8.808;2022-07-22T00:14:38;19.50;99.90
38726;DHT22;24474;48.906;8.808;2022-07-22T00:17:03;19.40;99.90
38726;DHT22;24474;48.906;8.808;2022-07-22T00:19:29;19.40;99.90
38726;DHT22;24474;48.906;8.808;2022-07-22T00:21:54;19.40;99.90
38726;DHT22;24474;48.906;8.808;2022-07-22T00:24:20;19.40;99.90
38726;DHT22;24474;48.906;8.808;2022-07-22T00:26:46;19.30;99.90
38726;DHT22;24474;48.906;8.808;2022-07-22T00:29:11;19.30;99.90
38726;DHT22;24474;48.906;8.808;2022-07-22T00:31:37;19.30;99.90
38726;DHT22;24474;48.906;8.808;2022-07-22T00:34:37;19.30;99.90
38726;DHT22;24474;48.906;8.808;2022-07-22T00:37:02;19.30;99.90
38726;DHT22;24474;48.906;8.808;2022-07-22T00:39:30;19.20;99.90
38726;DHT22;24474;48.906;8.808;2022-07-22T00:41:56;19.20;99.90
38726;DHT22;24474;48.906;8.808;2022-07-22T00:44:22;19.10;99.90
38726;DHT22;24474;48.906;8.808;2022-07-22T00:46:47;19.00;99.90
38726;DHT22;24474;48.906;8.808;2022-07-22T00:49:13;19.00;99.90
38726;DHT22;24474;48.906;8.808;2022-07-22T00:51:39;19.00;99.90
38726;DHT22;24474;48.906;8.808;2022-07-22T00:54:05;18.90;99.90
38726;DHT22;24474;48.906;8.808;2022-07-22T00:56:31;19.00;99.90
38726;DHT22;24474;48.906;8.808;2022-07-22T00:59:00;18.90;99.90
38726;DHT22;24474;48.906;8.808;2022-07-22T01:01:26;18.90;99.90
38726;DHT22;24474;48.906;8.808;2022-07-22T01:03:52;18.90;99.90
38726;DHT22;24474;48.906;8.808;2022-07-22T01:06:18;18.90;99.90
38726;DHT22;24474;48.906;8.808;2022-07-22T01:08:44;18.80;99.90
38726;DHT22;24474;48.906;8.808;2022-07-22T01:11:15;18.80;99.90
38726;DHT22;24474;48.906;8.808;2022-07-22T01:13:42;18.70;99.90
38726;DHT22;24474;48.906;8.808;2022-07-22T01:16:09;18.70;99.90
38726;DHT22;24474;48.906;8.808;2022-07-22T01:18:36;18.70;99.90
38726;DHT22;24474;48.906;8.808;2022-07-22T01:21:02;18.70;99.90
38726;DHT22;24474;48.906;8.808;2022-07-22T01:23:28;18.70;99.90
38726;DHT22;24474;48.906;8.808;2022-07-22T01:25:54;18.70;99.90
38726;DHT22;24474;48.906;8.808;2022-07-22T01:28:19;18.60;99.90
38726;DHT22;24474;48.906;8.808;2022-07-22T01:30:45;18.60;99.90
38726;DHT22;24474;48.906;8.808;2022-07-22T01:33:11;18.50;99.90
38726;DHT22;24474;48.906;8.808;2022-07-22T01:35:37;18.50;99.90
38726;DHT22;24474;48.906;8.808;2022-07-22T01:38:03;18.50;99.90
38726;DHT22;24474;48.906;8.808;2022-07-22T01:40:28;18.40;99.90
38726;DHT22;24474;48.906;8.808;2022-07-22T01:42:54;18.40;99.90
38726;DHT22;24474;48.906;8.808;2022-07-22T01:45:20;18.40;99.90
38726;DHT22;24474;48.906;8.808;2022-07-22T01:47:45;18.30;99.90
38726;DHT22;24474;48.906;8.808;2022-07-22T01:50:11;18.30;99.90
38726;DHT22;24474;48.906;8.808;2022-07-22T01:52:38;18.30;99.90
38726;DHT22;24474;48.906;8.808;2022-07-22T01:55:08;18.30;99.90
38726;DHT22;24474;48.906;8.808;2022-07-22T01:57:35;18.30;99.90
38726;DHT22;24474;48.906;8.808;2022-07-22T02:00:01;18.30;99.90
38726;DHT22;24474;48.906;8.808;2022-07-22T02:02:26;18.30;99.90
38726;DHT22;24474;48.906;8.808;2022-07-22T02:04:52;18.30;99.90
38726;DHT22;24474;48.906;8.808;2022-07-22T02:07:17;18.20;99.90
38726;DHT22;24474;48.906;8.808;2022-07-22T02:09:46;18.20;99.90
38726;DHT22;24474;48.906;8.808;2022-07-22T02:12:12;18.20;99.90
38726;DHT22;24474;48.906;8.808;2022-07-22T02:14:38;18.10;99.90
38726;DHT22;24474;48.906;8.808;2022-07-22T02:17:03;18.10;99.90
38726;DHT22;24474;48.906;8.808;2022-07-22T02:19:29;18.10;99.90
38726;DHT22;24474;48.906;8.808;2022-07-22T02:21:54;18.00;99.90
38726;DHT22;24474;48.906;8.808;2022-07-22T02:24:20;18.00;99.90
38726;DHT22;24474;48.906;8.808;2022-07-22T02:26:46;17.90;99.90
38726;DHT22;24474;48.906;8.808;2022-07-22T02:29:11;17.90;99.90
38726;DHT22;24474;48.906;8.808;2022-07-22T02:31:37;17.90;99.90
38726;DHT22;24474;48.906;8.808;2022-07-22T02:34:03;17.90;99.90
38726;DHT22;24474;48.906;8.808;2022-07-22T02:36:28;17.90;99.90
38726;DHT22;24474;48.906;8.808;2022-07-22T02:38:54;17.90;99.90
38726;DHT22;24474;48.906;8.808;2022-07-22T02:41:20;17.80;99.90
38726;DHT22;24474;48.906;8.808;2022-07-22T02:43:45;17.80;99.90
38726;DHT22;24474;48.906;8.808;2022-07-22T02:46:11;17.80;99.90
38726;DHT22;24474;48.906;8.808;2022-07-22T02:48:37;17.80;99.90
38726;DHT22;24474;48.906;8.808;2022-07-22T02:51:02;17.70;99.90
38726;DHT22;24474;48.906;8.808;2022-07-22T02:53:29;17.70;99.90
38726;DHT22;24474;48.906;8.808;2022-07-22T02:55:54;17.70;99.90
38726;DHT22;24474;48.906;8.808;2022-07-22T02:58:20;17.70;99.90
38726;DHT22;24474;48.906;8.808;2022-07-22T03:00:46;17.70;99.90
38726;DHT22;24474;48.906;8.808;2022-07-22T03:03:11;17.70;99.90
38726;DHT22;24474;48.906;8.808;2022-07-22T03:05:37;17.60;99.90
38726;DHT22;24474;48.906;8.808;2022-07-22T03:08:03;17.60;99.90
38726;DHT22;24474;48.906;8.808;2022-07-22T03:10:29;17.60;99.90
38726;DHT22;24474;48.906;8.808;2022-07-22T03:12:54;17.60;99.90
38726;DHT22;24474;48.906;8.808;2022-07-22T03:15:22;17.60;99.90
38726;DHT22;24474;48.906;8.808;2022-07-22T03:17:47;17.50;99.90
38726;DHT22;24474;48.906;8.808;2022-07-22T03:20:14;17.50;99.90
38726;DHT22;24474;48.906;8.808;2022-07-22T03:22:40;17.50;99.90
38726;DHT22;24474;48.906;8.808;2022-07-22T03:25:05;17.40;99.90
38726;DHT22;24474;48.906;8.808;2022-07-22T03:27:33;17.40;99.90
38726;DHT22;24474;48.906;8.808;2022-07-22T03:29:58;17.40;99.90
38726;DHT22;24474;48.906;8.808;2022-07-22T03:32:24;17.30;99.90
38726;DHT22;24474;48.906;8.808;2022-07-22T03:34:51;17.30;99.90
38726;DHT22;24474;48.906;8.808;2022-07-22T03:37:17;17.30;99.90
38726;DHT22;24474;48.906;8.808;2022-07-22T03:39:43;17.30;99.90
38726;DHT22;24474;48.906;8.808;2022-07-22T03:42:08;17.30;99.90
38726;DHT22;24474;48.906;8.808;2022-07-22T03:44:34;17.30;99.90
38726;DHT22;24474;48.906;8.808;2022-07-22T03:47:00;17.30;99.90
38726;DHT22;24474;48.906;8.808;2022-07-22T03:49:26;17.30;99.90
38726;DHT22;24474;48.906;8.808;2022-07-22T03:51:56;17.20;99.90
38726;DHT22;24474;48.906;8.808;2022-07-22T03:54:22;17.20;99.90
38726;DHT22;24474;48.906;8.808;2022-07-22T03:56:47;17.20;99.90
38726;DHT22;24474;48.906;8.808;2022-07-22T03:59:13;17.20;99.90
38726;DHT22;24474;48.906;8.808;2022-07-22T04:01:40;17.20;99.90
38726;DHT22;24474;48.906;8.808;2022-07-22T04:04:06;17.20;99.90
38726;DHT22;24474;48.906;8.808;2022-07-22T04:06:33;17.10;99.90
38726;DHT22;24474;48.906;8.808;2022-07-22T04:08:58;17.10;99.90
38726;DHT22;24474;48.906;8.808;2022-07-22T04:11:24;17.10;99.90
38726;DHT22;24474;48.906;8.808;2022-07-22T04:13:50;17.10;99.90
38726;DHT22;24474;48.906;8.808;2022-07-22T04:16:16;17.10;99.90
38726;DHT22;24474;48.906;8.808;2022-07-22T04:18:42;17.10;99.90
38726;DHT22;24474;48.906;8.808;2022-07-22T04:21:08;17.10;99.90
38726;DHT22;24474;48.906;8.808;2022-07-22T04:23:34;17.10;99.90
38726;DHT22;24474;48.906;8.808;2022-07-22T04:25:59;17.10;99.90
38726;DHT22;24474;48.906;8.808;2022-07-22T04:28:26;17.10;99.90
38726;DHT22;24474;48.906;8.808;2022-07-22T04:30:52;17.10;99.90
38726;DHT22;24474;48.906;8.808;2022-07-22T04:33:17;17.10;99.90
38726;DHT22;24474;48.906;8.808;2022-07-22T04:35:44;17.10;99.90
38726;DHT22;24474;48.906;8.808;2022-07-22T04:38:10;17.10;99.90
38726;DHT22;24474;48.906;8.808;2022-07-22T04:40:37;17.10;99.90
38726;DHT22;24474;48.906;8.808;2022-07-22T04:43:03;17.10;99.90
38726;DHT22;24474;48.906;8.808;2022-07-22T04:45:29;17.20;99.90
38726;DHT22;24474;48.906;8.808;2022-07-22T04:47:54;17.10;99.90
38726;DHT22;24474;48.906;8.808;2022-07-22T04:50:21;17.10;99.90
38726;DHT22;24474;48.906;8.808;2022-07-22T04:52:46;17.20;99.90
38726;DHT22;24474;48.906;8.808;2022-07-22T04:55:12;17.20;99.90
38726;DHT22;24474;48.906;8.808;2022-07-22T04:57:39;17.30;99.90
38726;DHT22;24474;48.906;8.808;2022-07-22T05:00:06;17.40;99.90
38726;DHT22;24474;48.906;8.808;2022-07-22T05:02:33;17.40;99.90
38726;DHT22;24474;48.906;8.808;2022-07-22T05:04:59;17.50;99.90
38726;DHT22;24474;48.906;8.808;2022-07-22T05:07:25;17.50;99.90
38726;DHT22;24474;48.906;8.808;2022-07-22T05:09:52;17.50;99.90
38726;DHT22;24474;48.906;8.808;2022-07-22T05:12:18;17.50;99.90
38726;DHT22;24474;48.906;8.808;2022-07-22T05:14:45;17.60;99.90
38726;DHT22;24474;48.906;8.808;2022-07-22T05:17:11;17.60;99.90
38726;DHT22;24474;48.906;8.808;2022-07-22T05:19:38;17.60;99.90
38726;DHT22;24474;48.906;8.808;2022-07-22T05:22:06;17.60;99.90
38726;DHT22;24474;48.906;8.808;2022-07-22T05:24:32;17.70;99.90
38726;DHT22;24474;48.906;8.808;2022-07-22T05:26:58;17.80;99.90
38726;DHT22;24474;48.906;8.808;2022-07-22T05:29:25;17.80;99.90
38726;DHT22;24474;48.906;8.808;2022-07-22T05:31:50;17.90;99.90
38726;DHT22;24474;48.906;8.808;2022-07-22T05:34:16;17.90;99.90
38726;DHT22;24474;48.906;8.808;2022-07-22T05:36:43;18.00;99.90
38726;DHT22;24474;48.906;8.808;2022-07-22T05:39:08;18.10;99.90
38726;DHT22;24474;48.906;8.808;2022-07-22T05:41:34;18.20;99.90
38726;DHT22;24474;48.906;8.808;2022-07-22T05:44:01;18.40;99.90
38726;DHT22;24474;48.906;8.808;2022-07-22T05:46:28;18.90;99.90
38726;DHT22;24474;48.906;8.808;2022-07-22T05:48:54;20.20;99.90
38726;DHT22;24474;48.906;8.808;2022-07-22T05:51:20;21.50;99.90
38726;DHT22;24474;48.906;8.808;2022-07-22T05:53:46;22.70;99.90
38726;DHT22;24474;48.906;8.808;2022-07-22T05:56:12;23.30;99.90
38726;DHT22;24474;48.906;8.808;2022-07-22T05:58:41;23.90;99.90
38726;DHT22;24474;48.906;8.808;2022-07-22T06:01:09;24.60;99.90
38726;DHT22;24474;48.906;8.808;2022-07-22T06:03:35;24.70;99.90
38726;DHT22;24474;48.906;8.808;2022-07-22T06:06:00;25.00;99.90
38726;DHT22;24474;48.906;8.808;2022-07-22T06:08:34;25.00;99.90
38726;DHT22;24474;48.906;8.808;2022-07-22T06:11:00;24.70;99.90
38726;DHT22;24474;48.906;8.808;2022-07-22T06:13:26;24.20;99.90
38726;DHT22;24474;48.906;8.808;2022-07-22T06:15:53;23.10;99.90
38726;DHT22;24474;48.906;8.808;2022-07-22T06:18:23;22.30;99.90
38726;DHT22;24474;48.906;8.808;2022-07-22T06:20:49;21.80;99.90
38726;DHT22;24474;48.906;8.808;2022-07-22T06:23:15;21.60;99.90
38726;DHT22;24474;48.906;8.808;2022-07-22T06:25:41;21.30;99.90
38726;DHT22;24474;48.906;8.808;2022-07-22T06:28:08;20.90;99.90
38726;DHT22;24474;48.906;8.808;2022-07-22T06:30:35;20.70;99.90
38726;DHT22;24474;48.906;8.808;2022-07-22T06:33:02;20.60;99.90
38726;DHT22;24474;48.906;8.808;2022-07-22T06:35:27;20.50;99.90
38726;DHT22;24474;48.906;8.808;2022-07-22T06:37:53;20.50;99.90
38726;DHT22;24474;48.906;8.808;2022-07-22T06:40:19;20.50;99.90
38726;DHT22;24474;48.906;8.808;2022-07-22T06:42:44;20.40;99.90
38726;DHT22;24474;48.906;8.808;2022-07-22T06:45:11;20.50;99.90
38726;DHT22;24474;48.906;8.808;2022-07-22T06:47:37;20.40;99.90
38726;DHT22;24474;48.906;8.808;2022-07-22T06:50:04;20.40;99.90
38726;DHT22;24474;48.906;8.808;2022-07-22T06:52:30;20.50;99.90
38726;DHT22;24474;48.906;8.808;2022-07-22T06:54:56;20.40;99.90
38726;DHT22;24474;48.906;8.808;2022-07-22T06:57:21;20.50;99.90
38726;DHT22;24474;48.906;8.808;2022-07-22T06:59:49;20.50;99.90
38726;DHT22;24474;48.906;8.808;2022-07-22T07:02:14;20.60;99.90
38726;DHT22;24474;48.906;8.808;2022-07-22T07:04:41;20.60;99.90
38726;DHT22;24474;48.906;8.808;2022-07-22T07:07:09;20.60;99.90
38726;DHT22;24474;48.906;8.808;2022-07-22T07:09:35;20.60;99.90
38726;DHT22;24474;48.906;8.808;2022-07-22T07:12:01;20.60;99.90
38726;DHT22;24474;48.906;8.808;2022-07-22T07:14:27;20.70;99.90
38726;DHT22;24474;48.906;8.808;2022-07-22T07:16:52;20.70;99.90
38726;DHT22;24474;48.906;8.808;2022-07-22T07:19:18;20.70;99.90
38726;DHT22;24474;48.906;8.808;2022-07-22T07:21:45;20.80;99.90
38726;DHT22;24474;48.906;8.808;2022-07-22T07:24:11;20.80;99.90
38726;DHT22;24474;48.906;8.808;2022-07-22T07:26:39;20.90;99.90
38726;DHT22;24474;48.906;8.808;2022-07-22T07:29:04;20.90;99.90
38726;DHT22;24474;48.906;8.808;2022-07-22T07:31:31;20.90;99.90
38726;DHT22;24474;48.906;8.808;2022-07-22T07:33:59;21.00;99.90
38726;DHT22;24474;48.906;8.808;2022-07-22T07:36:25;21.00;99.90
38726;DHT22;24474;48.906;8.808;2022-07-22T07:38:50;21.10;99.90
38726;DHT22;24474;48.906;8.808;2022-07-22T07:41:17;21.10;99.90
38726;DHT22;24474;48.906;8.808;2022-07-22T07:43:43;21.20;99.90
38726;DHT22;24474;48.906;8.808;2022-07-22T07:46:11;21.20;99.90
38726;DHT22;24474;48.906;8.808;2022-07-22T07:48:36;21.20;99.90
38726;DHT22;24474;48.906;8.808;2022-07-22T07:51:03;21.20;99.90
38726;DHT22;24474;48.906;8.808;2022-07-22T07:53:30;21.30;99.90
38726;DHT22;24474;48.906;8.808;2022-07-22T07:55:56;21.30;99.90
38726;DHT22;24474;48.906;8.808;2022-07-22T07:58:21;21.30;99.90
38726;DHT22;24474;48.906;8.808;2022-07-22T08:00:48;21.30;99.90
38726;DHT22;24474;48.906;8.808;2022-07-22T08:03:14;21.40;99.90
38726;DHT22;24474;48.906;8.808;2022-07-22T08:05:41;21.40;99.90
38726;DHT22;24474;48.906;8.808;2022-07-22T08:08:08;21.50;99.90
38726;DHT22;24474;48.906;8.808;2022-07-22T08:10:34;21.50;99.90
38726;DHT22;24474;48.906;8.808;2022-07-22T08:13:00;21.60;99.90
38726;DHT22;24474;48.906;8.808;2022-07-22T08:15:27;21.70;99.90
38726;DHT22;24474;48.906;8.808;2022-07-22T08:17:54;21.80;99.90
38726;DHT22;24474;48.906;8.808;2022-07-22T08:20:21;21.80;99.90
38726;DHT22;24474;48.906;8.808;2022-07-22T08:22:46;21.90;99.90
38726;DHT22;24474;48.906;8.808;2022-07-22T08:25:13;21.90;99.90
38726;DHT22;24474;48.906;8.808;2022-07-22T08:27:39;22.00;99.90
38726;DHT22;24474;48.906;8.808;2022-07-22T08:30:05;22.00;99.90
38726;DHT22;24474;48.906;8.808;2022-07-22T08:32:33;22.10;99.90
38726;DHT22;24474;48.906;8.808;2022-07-22T08:35:00;22.20;99.90
38726;DHT22;24474;48.906;8.808;2022-07-22T08:37:27;22.30;99.90
38726;DHT22;24474;48.906;8.808;2022-07-22T08:39:53;22.30;99.90
38726;DHT22;24474;48.906;8.808;2022-07-22T08:42:21;22.40;99.90
38726;DHT22;24474;48.906;8.808;2022-07-22T08:44:48;22.50;99.90
38726;DHT22;24474;48.906;8.808;2022-07-22T08:47:19;22.50;99.90
38726;DHT22;24474;48.906;8.808;2022-07-22T08:49:45;22.50;99.90
38726;DHT22;24474;48.906;8.808;2022-07-22T08:52:11;22.50;99.90
38726;DHT22;24474;48.906;8.808;2022-07-22T08:54:36;22.60;99.90
38726;DHT22;24474;48.906;8.808;2022-07-22T08:57:02;22.70;99.90
38726;DHT22;24474;48.906;8.808;2022-07-22T08:59:28;22.70;99.90
38726;DHT22;24474;48.906;8.808;2022-07-22T09:02:03;22.80;99.90
38726;DHT22;24474;48.906;8.808;2022-07-22T09:04:30;22.80;99.90
38726;DHT22;24474;48.906;8.808;2022-07-22T09:06:57;22.90;99.90
38726;DHT22;24474;48.906;8.808;2022-07-22T09:09:31;23.00;99.90
38726;DHT22;24474;48.906;8.808;2022-07-22T09:12:08;23.10;99.90
38726;DHT22;24474;48.906;8.808;2022-07-22T09:14:45;23.10;99.90
38726;DHT22;24474;48.906;8.808;2022-07-22T09:17:27;23.20;99.90
38726;DHT22;24474;48.906;8.808;2022-07-22T09:19:55;23.20;99.90
38726;DHT22;24474;48.906;8.808;2022-07-22T09:27:44;23.40;99.90
38726;DHT22;24474;48.906;8.808;2022-07-22T09:30:22;23.50;99.90
38726;DHT22;24474;48.906;8.808;2022-07-22T09:32:48;23.50;99.90
38726;DHT22;24474;48.906;8.808;2022-07-22T09:35:14;23.50;99.90
38726;DHT22;24474;48.906;8.808;2022-07-22T09:40:26;23.70;99.90
38726;DHT22;24474;48.906;8.808;2022-07-22T09:42:57;23.80;99.90
38726;DHT22;24474;48.906;8.808;2022-07-22T09:45:28;23.80;99.90
38726;DHT22;24474;48.906;8.808;2022-07-22T09:47:55;23.90;99.90
38726;DHT22;24474;48.906;8.808;2022-07-22T09:50:30;24.00;99.90
38726;DHT22;24474;48.906;8.808;2022-07-22T09:52:58;24.10;99.90
38726;DHT22;24474;48.906;8.808;2022-07-22T09:55:25;24.20;99.90
38726;DHT22;24474;48.906;8.808;2022-07-22T09:57:53;24.30;99.90
38726;DHT22;24474;48.906;8.808;2022-07-22T10:00:21;24.30;99.90
38726;DHT22;24474;48.906;8.808;2022-07-22T10:05:19;24.50;99.20
38726;DHT22;24474;48.906;8.808;2022-07-22T10:07:46;24.50;99.30
38726;DHT22;24474;48.906;8.808;2022-07-22T10:10:16;24.50;99.20
38726;DHT22;24474;48.906;8.808;2022-07-22T10:12:44;24.60;99.10
38726;DHT22;24474;48.906;8.808;2022-07-22T10:15:12;24.70;99.00
38726;DHT22;24474;48.906;8.808;2022-07-22T10:17:43;24.70;99.30
38726;DHT22;24474;48.906;8.808;2022-07-22T10:20:09;24.80;98.60
38726;DHT22;24474;48.906;8.808;2022-07-22T10:25:08;25.00;98.00
38726;DHT22;24474;48.906;8.808;2022-07-22T10:30:19;25.10;97.50
38726;DHT22;24474;48.906;8.808;2022-07-22T10:32:45;25.10;98.00
38726;DHT22;24474;48.906;8.808;2022-07-22T10:37:39;25.30;97.30
38726;DHT22;24474;48.906;8.808;2022-07-22T10:40:17;25.30;97.80
38726;DHT22;24474;48.906;8.808;2022-07-22T10:45:46;25.50;97.20
38726;DHT22;24474;48.906;8.808;2022-07-22T10:48:15;25.50;97.40
38726;DHT22;24474;48.906;8.808;2022-07-22T10:50:43;25.60;97.30
38726;DHT22;24474;48.906;8.808;2022-07-22T10:55:59;25.80;96.80
38726;DHT22;24474;48.906;8.808;2022-07-22T11:01:05;25.90;96.70
38726;DHT22;24474;48.906;8.808;2022-07-22T11:03:33;25.90;95.80
38726;DHT22;24474;48.906;8.808;2022-07-22T11:06:18;26.00;96.80
38726;DHT22;24474;48.906;8.808;2022-07-22T11:08:47;26.00;96.10
38726;DHT22;24474;48.906;8.808;2022-07-22T11:11:14;26.10;96.00
38726;DHT22;24474;48.906;8.808;2022-07-22T11:13:42;26.10;95.90
38726;DHT22;24474;48.906;8.808;2022-07-22T11:18:50;26.20;95.40
38726;DHT22;24474;48.906;8.808;2022-07-22T11:21:18;26.20;95.60
38726;DHT22;24474;48.906;8.808;2022-07-22T11:23:47;26.20;95.70
38726;DHT22;24474;48.906;8.808;2022-07-22T11:26:15;26.30;95.70
38726;DHT22;24474;48.906;8.808;2022-07-22T11:28:42;26.30;95.10
38726;DHT22;24474;48.906;8.808;2022-07-22T11:31:10;26.50;95.10
38726;DHT22;24474;48.906;8.808;2022-07-22T11:33:36;26.60;95.00
38726;DHT22;24474;48.906;8.808;2022-07-22T11:36:07;26.60;94.60
38726;DHT22;24474;48.906;8.808;2022-07-22T11:38:41;26.70;93.90
38726;DHT22;24474;48.906;8.808;2022-07-22T11:41:07;26.70;94.50
38726;DHT22;24474;48.906;8.808;2022-07-22T11:43:49;26.80;94.40
38726;DHT22;24474;48.906;8.808;2022-07-22T11:46:16;26.90;94.50
38726;DHT22;24474;48.906;8.808;2022-07-22T11:48:45;26.90;94.40
38726;DHT22;24474;48.906;8.808;2022-07-22T11:51:12;27.00;94.20
38726;DHT22;24474;48.906;8.808;2022-07-22T11:53:40;27.10;94.20
38726;DHT22;24474;48.906;8.808;2022-07-22T11:56:10;27.20;94.00
38726;DHT22;24474;48.906;8.808;2022-07-22T11:58:42;27.30;93.60
38726;DHT22;24474;48.906;8.808;2022-07-22T12:01:09;27.30;93.40
38726;DHT22;24474;48.906;8.808;2022-07-22T12:03:37;27.40;92.50
38726;DHT22;24474;48.906;8.808;2022-07-22T12:06:05;27.40;93.00
38726;DHT22;24474;48.906;8.808;2022-07-22T12:08:32;27.50;93.10
38726;DHT22;24474;48.906;8.808;2022-07-22T12:10:59;27.50;93.10
38726;DHT22;24474;48.906;8.808;2022-07-22T12:13:30;27.60;92.90
38726;DHT22;24474;48.906;8.808;2022-07-22T12:15:56;27.60;92.10
38726;DHT22;24474;48.906;8.808;2022-07-22T12:18:24;27.60;91.80
38726;DHT22;24474;48.906;8.808;2022-07-22T12:20:51;27.60;92.20
38726;DHT22;24474;48.906;8.808;2022-07-22T12:23:17;27.60;92.00
38726;DHT22;24474;48.906;8.808;2022-07-22T12:25:53;27.70;92.50
38726;DHT22;24474;48.906;8.808;2022-07-22T12:28:20;27.70;92.30
38726;DHT22;24474;48.906;8.808;2022-07-22T12:30:47;27.80;92.20
38726;DHT22;24474;48.906;8.808;2022-07-22T12:33:17;27.80;91.40
38726;DHT22;24474;48.906;8.808;2022-07-22T12:35:44;27.80;91.60
38726;DHT22;24474;48.906;8.808;2022-07-22T12:38:22;27.90;91.60
38726;DHT22;24474;48.906;8.808;2022-07-22T12:40:48;28.00;91.30
38726;DHT22;24474;48.906;8.808;2022-07-22T12:43:13;28.00;91.40
38726;DHT22;24474;48.906;8.808;2022-07-22T12:45:39;28.00;91.70
38726;DHT22;24474;48.906;8.808;2022-07-22T12:48:08;28.00;91.70
38726;DHT22;24474;48.906;8.808;2022-07-22T12:50:35;28.10;91.30
38726;DHT22;24474;48.906;8.808;2022-07-22T12:53:02;28.10;91.60
38726;DHT22;24474;48.906;8.808;2022-07-22T12:55:29;28.20;91.00
38726;DHT22;24474;48.906;8.808;2022-07-22T12:57:55;28.20;91.10
38726;DHT22;24474;48.906;8.808;2022-07-22T13:00:27;28.20;91.10
38726;DHT22;24474;48.906;8.808;2022-07-22T13:02:54;28.30;91.20
38726;DHT22;24474;48.906;8.808;2022-07-22T13:05:21;28.30;90.90
38726;DHT22;24474;48.906;8.808;2022-07-22T13:07:47;28.40;90.10
38726;DHT22;24474;48.906;8.808;2022-07-22T13:10:14;28.40;90.50
38726;DHT22;24474;48.906;8.808;2022-07-22T13:12:40;28.50;90.50
38726;DHT22;24474;48.906;8.808;2022-07-22T13:15:07;28.50;90.20
38726;DHT22;24474;48.906;8.808;2022-07-22T13:17:35;28.50;90.40
38726;DHT22;24474;48.906;8.808;2022-07-22T13:20:02;28.60;90.30
38726;DHT22;24474;48.906;8.808;2022-07-22T13:22:28;28.60;90.20
38726;DHT22;24474;48.906;8.808;2022-07-22T13:24:54;28.60;90.20
38726;DHT22;24474;48.906;8.808;2022-07-22T13:27:20;28.70;90.40
38726;DHT22;24474;48.906;8.808;2022-07-22T13:29:46;28.70;89.60
38726;DHT22;24474;48.906;8.808;2022-07-22T13:32:11;28.70;90.30
38726;DHT22;24474;48.906;8.808;2022-07-22T13:34:37;28.80;89.20
38726;DHT22;24474;48.906;8.808;2022-07-22T13:37:03;28.80;90.10
38726;DHT22;24474;48.906;8.808;2022-07-22T13:39:28;28.90;89.10
38726;DHT22;24474;48.906;8.808;2022-07-22T13:41:54;28.80;89.30
38726;DHT22;24474;48.906;8.808;2022-07-22T13:44:20;28.90;89.80
38726;DHT22;24474;48.906;8.808;2022-07-22T13:46:46;28.90;88.70
38726;DHT22;24474;48.906;8.808;2022-07-22T13:49:12;28.90;88.60
38726;DHT22;24474;48.906;8.808;2022-07-22T13:51:38;29.00;87.30
38726;DHT22;24474;48.906;8.808;2022-07-22T13:54:04;29.10;86.60
38726;DHT22;24474;48.906;8.808;2022-07-22T13:56:31;29.10;88.30
38726;DHT22;24474;48.906;8.808;2022-07-22T13:58:58;29.20;87.90
38726;DHT22;24474;48.906;8.808;2022-07-22T14:01:24;29.20;87.70
38726;DHT22;24474;48.906;8.808;2022-07-22T14:03:50;29.30;87.20
38726;DHT22;24474;48.906;8.808;2022-07-22T14:06:15;29.30;87.10
38726;DHT22;24474;48.906;8.808;2022-07-22T14:08:41;29.40;86.40
38726;DHT22;24474;48.906;8.808;2022-07-22T14:11:07;29.40;85.90
38726;DHT22;24474;48.906;8.808;2022-07-22T14:13:33;29.50;85.20
38726;DHT22;24474;48.906;8.808;2022-07-22T14:15:59;29.50;85.10
38726;DHT22;24474;48.906;8.808;2022-07-22T14:18:45;29.50;85.70
38726;DHT22;24474;48.906;8.808;2022-07-22T14:21:10;29.60;85.10
38726;DHT22;24474;48.906;8.808;2022-07-22T14:23:36;29.50;84.60
38726;DHT22;24474;48.906;8.808;2022-07-22T14:26:01;29.50;84.80
38726;DHT22;24474;48.906;8.808;2022-07-22T14:28:27;29.50;84.50
38726;DHT22;24474;48.906;8.808;2022-07-22T14:30:53;29.60;83.90
38726;DHT22;24474;48.906;8.808;2022-07-22T14:33:18;29.60;83.60
38726;DHT22;24474;48.906;8.808;2022-07-22T14:35:44;29.60;83.90
38726;DHT22;24474;48.906;8.808;2022-07-22T14:38:10;29.70;83.40
38726;DHT22;24474;48.906;8.808;2022-07-22T14:40:35;29.60;83.70
38726;DHT22;24474;48.906;8.808;2022-07-22T14:43:01;29.60;84.00
38726;DHT22;24474;48.906;8.808;2022-07-22T14:45:30;29.70;83.10
38726;DHT22;24474;48.906;8.808;2022-07-22T14:47:55;29.70;83.30
38726;DHT22;24474;48.906;8.808;2022-07-22T14:50:21;29.70;83.40
38726;DHT22;24474;48.906;8.808;2022-07-22T14:52:47;29.70;84.00
38726;DHT22;24474;48.906;8.808;2022-07-22T14:55:13;29.80;83.50
38726;DHT22;24474;48.906;8.808;2022-07-22T14:57:39;29.80;83.70
38726;DHT22;24474;48.906;8.808;2022-07-22T15:00:05;29.90;82.10
38726;DHT22;24474;48.906;8.808;2022-07-22T15:02:34;29.90;82.60
38726;DHT22;24474;48.906;8.808;2022-07-22T15:05:00;29.90;82.30
38726;DHT22;24474;48.906;8.808;2022-07-22T15:07:26;30.00;81.80
38726;DHT22;24474;48.906;8.808;2022-07-22T15:09:52;29.90;82.20
38726;DHT22;24474;48.906;8.808;2022-07-22T15:12:18;30.00;82.30
38726;DHT22;24474;48.906;8.808;2022-07-22T15:14:44;30.00;82.20
38726;DHT22;24474;48.906;8.808;2022-07-22T15:17:09;30.10;81.60
38726;DHT22;24474;48.906;8.808;2022-07-22T15:19:35;30.00;81.90
38726;DHT22;24474;48.906;8.808;2022-07-22T15:22:01;30.10;82.20
38726;DHT22;24474;48.906;8.808;2022-07-22T15:24:26;30.10;81.30
38726;DHT22;24474;48.906;8.808;2022-07-22T15:26:52;30.20;80.60
38726;DHT22;24474;48.906;8.808;2022-07-22T15:29:18;30.20;80.00
38726;DHT22;24474;48.906;8.808;2022-07-22T15:31:45;30.30;80.50
38726;DHT22;24474;48.906;8.808;2022-07-22T15:34:11;30.30;81.90
38726;DHT22;24474;48.906;8.808;2022-07-22T15:36:37;30.30;81.70
38726;DHT22;24474;48.906;8.808;2022-07-22T15:39:03;30.20;79.90
38726;DHT22;24474;48.906;8.808;2022-07-22T15:41:29;30.20;80.20
38726;DHT22;24474;48.906;8.808;2022-07-22T15:43:55;30.20;81.00
38726;DHT22;24474;48.906;8.808;2022-07-22T15:46:21;30.30;80.30
38726;DHT22;24474;48.906;8.808;2022-07-22T15:48:47;30.30;80.80
38726;DHT22;24474;48.906;8.808;2022-07-22T15:51:14;30.40;79.00
38726;DHT22;24474;48.906;8.808;2022-07-22T15:53:40;30.40;78.80
38726;DHT22;24474;48.906;8.808;2022-07-22T15:56:06;30.50;80.70
38726;DHT22;24474;48.906;8.808;2022-07-22T15:58:32;30.40;81.00